Time;durP1;ratioP1;P1;durP2;ratioP2;P2;SDS_P1;SDS_P2;PMS_P1;PMS_P2;Temp;Humidity;BMP_temperature;BMP_pressure;BME280_temperature;BME280_humidity;BME280_pressure;Samples;Min_cycle;Max_cycle;Signal;HPM_P1;HPM_P2
2023/03/19 00:01:15;;;;;;;;;;;;;;;;;;4917849;29;19915;-83
2023/03/19 00:03:41;;;;;;;;;;;;;;;;;;4918163;29;19915;-83
2023/03/19 00:06:06;;;;;;;;;;;;;;;;;;4917886;29;20316;-84
2023/03/19 00:08:32;;;;;;;;;;;;;;;;;;4917748;29;19921;-86
2023/03/19 00:10:57;;;;;;;;;;;;;;;;;;4917881;29;19915;-83
2023/03/19 00:13:22;;;;;;;;;;;;;;;;;;4917874;29;19922;-83
2023/03/19 00:15:48;;;;;;;;;;;;;;;;;;4900695;29;19915;-83
2023/03/19 00:18:13;;;;;;;;;;;;;;;;;;4917507;29;19922;-83
2023/03/19 00:20:38;;;;;;;;;;;;;;;;;;4917832;29;19962;-83
2023/03/19 00:23:04;;;;;;;;;;;;;;;;;;4917855;29;20050;-82
2023/03/19 00:25:29;;;;;;;;;;;;;;;;;;4917593;29;20013;-82
2023/03/19 00:27:55;;;;;;;;;;;;;;;;;;4917431;29;19929;-83
2023/03/19 00:30:21;;;;;;;;;;;;;;;;;;4917622;29;19915;-83
2023/03/19 00:32:47;;;;;;;;;;;;;;;;;;4917505;29;19990;-82
2023/03/19 00:35:12;;;;;;;;;;;;;;;;;;4917461;29;19966;-82
2023/03/19 00:37:37;;;;;;;;;;;;;;;;;;4900772;29;19997;-82
2023/03/19 00:40:04;;;;;;;;;;;;;;;;;;4917828;29;19915;-83
2023/03/19 00:42:30;;;;;;;;;;;;;;;;;;4917691;29;19953;-83
2023/03/19 00:44:55;;;;;;;;;;;;;;;;;;4917305;29;19925;-82
2023/03/19 00:47:21;;;;;;;;;;;;;;;;;;4920437;29;19915;-83
2023/03/19 00:49:46;;;;;;;;;;;;;;;;;;4921163;29;20001;-83
2023/03/19 00:52:12;;;;;;;;;;;;;;;;;;4921436;29;19921;-82
2023/03/19 00:54:37;;;;;;;;;;;;;;;;;;4920828;29;19915;-83
2023/03/19 00:57:02;;;;;;;;;;;;;;;;;;4921098;29;19911;-83
2023/03/19 00:59:27;;;;;;;;;;;;;;;;;;4921093;29;19915;-83
2023/03/19 01:01:53;;;;;;;;;;;;;;;;;;4921066;29;19918;-83
2023/03/19 01:04:18;;;;;;;;;;;;;;;;;;4920858;29;20286;-83
2023/03/19 01:06:44;;;;;;;;;;;;;;;;;;4921151;29;20059;-82
2023/03/19 01:09:09;;;;;;;;;;;;;;;;;;4920909;29;19962;-82
2023/03/19 01:11:34;;;;;;;;;;;;;;;;;;4920789;29;20005;-82
2023/03/19 01:14:00;;;;;;;;;;;;;;;;;;4920713;29;19987;-83
2023/03/19 01:16:26;;;;;;;;;;;;;;;;;;4904031;29;20030;-83
2023/03/19 01:18:52;;;;;;;;;;;;;;;;;;4920630;29;19922;-83
2023/03/19 01:21:17;;;;;;;;;;;;;;;;;;4903580;29;19911;-83
2023/03/19 01:23:43;;;;;;;;;;;;;;;;;;4920802;29;20005;-84
2023/03/19 01:26:08;;;;;;;;;;;;;;;;;;4920509;29;19922;-83
2023/03/19 01:28:33;;;;;;;;;;;;;;;;;;4920667;29;19919;-83
2023/03/19 01:31:00;;;;;;;;;;;;;;;;;;4920335;29;19915;-83
2023/03/19 01:33:26;;;;;;;;;;;;;;;;;;4920351;29;19965;-83
2023/03/19 01:35:51;;;;;;;;;;;;;;;;;;4920470;29;19915;-83
2023/03/19 01:38:17;;;;;;;;;;;;;;;;;;4920469;29;20026;-83
2023/03/19 01:40:43;;;;;;;;;;;;;;;;;;4920426;29;19922;-83
2023/03/19 01:43:14;;;;;;;;;;;;;;;;;;4920188;29;19922;-83
2023/03/19 01:45:41;;;;;;;;;;;;;;;;;;4903072;29;20362;-83
2023/03/19 01:48:15;;;;;;;;;;;;;;;;;;4920157;29;19919;-83
2023/03/19 01:50:42;;;;;;;;;;;;;;;;;;4920184;29;19915;-83
2023/03/19 01:53:08;;;;;;;;;;;;;;;;;;4919988;29;19951;-83
2023/03/19 01:55:33;;;;;;;;;;;;;;;;;;4919956;29;20387;-83
2023/03/19 01:58:00;;;;;;;;;;;;;;;;;;4919393;29;20017;-82
2023/03/19 02:00:26;;;;;;;;;;;;;;;;;;4920019;29;20005;-83
2023/03/19 02:02:52;;;;;;;;;;;;;;;;;;4920250;29;20274;-83
2023/03/19 02:05:24;;;;;;;;;;;;;;;;;;4919852;29;19915;-83
2023/03/19 02:07:51;;;;;;;;;;;;;;;;;;4919692;29;19915;-83
2023/03/19 02:10:16;;;;;;;;;;;;;;;;;;4919803;29;19918;-83
2023/03/19 02:12:43;;;;;;;;;;;;;;;;;;4919869;29;19994;-83
2023/03/19 02:15:09;;;;;;;;;;;;;;;;;;4919725;29;19993;-83
2023/03/19 02:17:34;;;;;;;;;;;;;;;;;;4919817;29;20402;-83
2023/03/19 02:20:10;;;;;;;;;;;;;;;;;;4919567;29;20013;-84
2023/03/19 02:22:40;;;;;;;;;;;;;;;;;;4919513;29;19915;-83
2023/03/19 02:25:08;;;;;;;;;;;;;;;;;;4919274;29;19915;-83
2023/03/19 02:27:34;;;;;;;;;;;;;;;;;;4919474;29;19925;-83
2023/03/19 02:30:00;;;;;;;;;;;;;;;;;;4919882;29;19938;-83
2023/03/19 02:32:25;;;;;;;;;;;;;;;;;;4919367;29;19919;-83
2023/03/19 02:34:51;;;;;;;;;;;;;;;;;;4919360;29;20366;-83
2023/03/19 02:37:21;;;;;;;;;;;;;;;;;;4919590;29;19922;-83
2023/03/19 02:39:46;;;;;;;;;;;;;;;;;;4919502;29;20259;-83
2023/03/19 02:42:13;;;;;;;;;;;;;;;;;;4919115;29;19921;-83
2023/03/19 02:44:39;;;;;;;;;;;;;;;;;;4919123;29;19915;-83
2023/03/19 02:47:04;;;;;;;;;;;;;;;;;;4902134;29;20009;-83
2023/03/19 02:49:30;;;;;;;;;;;;;;;;;;4919244;29;19915;-83
2023/03/19 02:51:55;;;;;;;;;;;;;;;;;;4918985;29;19923;-83
2023/03/19 02:54:20;;;;;;;;;;;;;;;;;;4902024;29;19923;-83
2023/03/19 02:56:46;;;;;;;;;;;;;;;;;;4919159;29;19955;-83
2023/03/19 02:59:12;;;;;;;;;;;;;;;;;;4918760;29;20331;-83
2023/03/19 03:01:37;;;;;;;;;;;;;;;;;;4919052;29;20326;-83
2023/03/19 03:04:03;;;;;;;;;;;;;;;;;;4918923;29;20366;-83
2023/03/19 03:06:29;;;;;;;;;;;;;;;;;;4918753;29;20281;-83
2023/03/19 03:08:55;;;;;;;;;;;;;;;;;;4917640;29;19915;-83
2023/03/19 03:11:21;;;;;;;;;;;;;;;;;;4918833;29;20005;-83
2023/03/19 03:13:46;;;;;;;;;;;;;;;;;;4918863;29;19915;-83
2023/03/19 03:16:12;;;;;;;;;;;;;;;;;;4918746;29;19922;-83
2023/03/19 03:18:37;;;;;;;;;;;;;;;;;;4918477;29;19915;-83
2023/03/19 03:21:02;;;;;;;;;;;;;;;;;;4918440;29;20297;-83
2023/03/19 03:23:28;;;;;;;;;;;;;;;;;;4918743;29;19922;-83
2023/03/19 03:25:53;;;;;;;;;;;;;;;;;;4918759;29;19915;-83
2023/03/19 03:28:18;;;;;;;;;;;;;;;;;;4918327;29;19926;-82
2023/03/19 03:30:45;;;;;;;;;;;;;;;;;;4918342;29;19915;-83
2023/03/19 03:33:10;;;;;;;;;;;;;;;;;;4918342;29;19938;-83
2023/03/19 03:35:36;;;;;;;;;;;;;;;;;;4901291;29;19923;-83
2023/03/19 03:38:03;;;;;;;;;;;;;;;;;;4918306;29;20381;-83
2023/03/19 03:40:28;;;;;;;;;;;;;;;;;;4918353;29;19922;-83
2023/03/19 03:42:53;;;;;;;;;;;;;;;;;;4918249;29;20350;-83
2023/03/19 03:45:19;;;;;;;;;;;;;;;;;;4918056;29;20006;-83
2023/03/19 03:47:45;;;;;;;;;;;;;;;;;;4901264;29;19915;-83
2023/03/19 03:50:10;;;;;;;;;;;;;;;;;;4918325;29;20125;-83
2023/03/19 03:52:36;;;;;;;;;;;;;;;;;;4917945;29;20337;-83
2023/03/19 03:55:02;;;;;;;;;;;;;;;;;;4917840;29;19915;-83
2023/03/19 03:57:27;;;;;;;;;;;;;;;;;;4918168;29;19938;-83
2023/03/19 03:59:53;;;;;;;;;;;;;;;;;;4918126;29;19915;-83
2023/03/19 04:02:18;;;;;;;;;;;;;;;;;;4917967;29;19915;-83
2023/03/19 04:04:44;;;;;;;;;;;;;;;;;;4916415;29;20335;-83
2023/03/19 04:07:09;;;;;;;;;;;;;;;;;;4901104;29;19937;-83
2023/03/19 04:09:35;;;;;;;;;;;;;;;;;;4917767;29;20134;-83
2023/03/19 04:12:00;;;;;;;;;;;;;;;;;;4917974;29;20385;-83
2023/03/19 04:14:25;;;;;;;;;;;;;;;;;;4917669;29;20010;-83
2023/03/19 04:16:51;;;;;;;;;;;;;;;;;;4917738;29;20362;-83
2023/03/19 04:19:16;;;;;;;;;;;;;;;;;;4917758;29;20008;-83
2023/03/19 04:21:41;;;;;;;;;;;;;;;;;;4921185;29;19915;-83
2023/03/19 04:24:09;;;;;;;;;;;;;;;;;;4921498;29;19938;-83
2023/03/19 04:26:35;;;;;;;;;;;;;;;;;;4921911;29;19915;-83
2023/03/19 04:29:00;;;;;;;;;;;;;;;;;;4921459;29;19919;-83
2023/03/19 04:31:26;;;;;;;;;;;;;;;;;;4921602;29;19915;-83
2023/03/19 04:33:51;;;;;;;;;;;;;;;;;;4921307;29;20004;-83
2023/03/19 04:36:16;;;;;;;;;;;;;;;;;;4921447;29;20366;-83
2023/03/19 04:38:42;;;;;;;;;;;;;;;;;;4921243;29;19915;-83
2023/03/19 04:41:07;;;;;;;;;;;;;;;;;;4921460;29;19915;-83
2023/03/19 04:43:33;;;;;;;;;;;;;;;;;;4921309;29;20026;-83
2023/03/19 04:45:59;;;;;;;;;;;;;;;;;;4921092;29;19922;-83
2023/03/19 04:48:24;;;;;;;;;;;;;;;;;;4921134;29;19915;-83
2023/03/19 04:50:55;;;;;;;;;;;;;;;;;;4921510;29;19998;-83
2023/03/19 04:53:21;;;;;;;;;;;;;;;;;;4921134;29;20305;-83
2023/03/19 04:55:46;;;;;;;;;;;;;;;;;;4920996;29;19993;-83
2023/03/19 04:58:12;;;;;;;;;;;;;;;;;;4921071;29;19921;-83
2023/03/19 05:00:37;;;;;;;;;;;;;;;;;;4920032;29;19915;-83
2023/03/19 05:03:02;;;;;;;;;;;;;;;;;;4921114;29;20005;-83
2023/03/19 05:05:28;;;;;;;;;;;;;;;;;;4920937;29;19919;-83
2023/03/19 05:07:53;;;;;;;;;;;;;;;;;;4921043;29;20322;-83
2023/03/19 05:10:19;;;;;;;;;;;;;;;;;;4903800;29;20422;-83
2023/03/19 05:12:45;;;;;;;;;;;;;;;;;;4921046;29;19922;-83
2023/03/19 05:15:10;;;;;;;;;;;;;;;;;;4920746;29;19915;-83
2023/03/19 05:17:36;;;;;;;;;;;;;;;;;;4903797;29;19974;-83
2023/03/19 05:20:03;;;;;;;;;;;;;;;;;;4920580;29;19962;-83
2023/03/19 05:22:28;;;;;;;;;;;;;;;;;;4920662;29;19919;-83
2023/03/19 05:24:54;;;;;;;;;;;;;;;;;;4920637;29;19938;-83
2023/03/19 05:27:19;;;;;;;;;;;;;;;;;;4920357;29;19955;-83
2023/03/19 05:29:45;;;;;;;;;;;;;;;;;;4921134;29;19915;-82
2023/03/19 05:32:11;;;;;;;;;;;;;;;;;;4919685;29;20009;-83
2023/03/19 05:34:36;;;;;;;;;;;;;;;;;;4920180;29;20342;-81
2023/03/19 05:37:01;;;;;;;;;;;;;;;;;;4920544;29;19938;-81
2023/03/19 05:39:27;;;;;;;;;;;;;;;;;;4920617;29;19921;-81
2023/03/19 05:41:52;;;;;;;;;;;;;;;;;;4920108;29;19961;-81
2023/03/19 05:44:17;;;;;;;;;;;;;;;;;;4920140;29;20290;-81
2023/03/19 05:46:43;;;;;;;;;;;;;;;;;;4920412;29;19915;-81
2023/03/19 05:49:08;;;;;;;;;;;;;;;;;;4920198;29;20315;-82
2023/03/19 05:51:34;;;;;;;;;;;;;;;;;;4920038;29;20489;-83
2023/03/19 05:54:00;;;;;;;;;;;;;;;;;;4920036;29;19915;-81
2023/03/19 05:56:26;;;;;;;;;;;;;;;;;;4920236;29;20290;-81
2023/03/19 05:58:51;;;;;;;;;;;;;;;;;;4919927;29;19915;-81
2023/03/19 06:01:16;;;;;;;;;;;;;;;;;;4919928;29;19915;-82
2023/03/19 06:03:41;;;;;;;;;;;;;;;;;;4919973;29;19915;-81
2023/03/19 06:06:07;;;;;;;;;;;;;;;;;;4919855;29;19915;-81
2023/03/19 06:08:32;;;;;;;;;;;;;;;;;;4919851;29;19919;-81
2023/03/19 06:10:58;;;;;;;;;;;;;;;;;;4919679;29;19915;-81
2023/03/19 06:13:23;;;;;;;;;;;;;;;;;;4919690;29;20426;-82
2023/03/19 06:15:49;;;;;;;;;;;;;;;;;;4919870;29;19915;-82
2023/03/19 06:18:15;;;;;;;;;;;;;;;;;;4902604;29;19919;-82
2023/03/19 06:20:40;;;;;;;;;;;;;;;;;;4919616;29;20441;-81
2023/03/19 06:23:06;;;;;;;;;;;;;;;;;;4919513;29;19968;-82
2023/03/19 06:25:31;;;;;;;;;;;;;;;;;;4919593;29;19915;-84
2023/03/19 06:27:56;;;;;;;;;;;;;;;;;;4919164;29;19974;-83
2023/03/19 06:30:22;;;;;;;;;;;;;;;;;;4919546;29;19922;-84
2023/03/19 06:32:47;;;;;;;;;;;;;;;;;;4919572;29;20267;-83
2023/03/19 06:35:12;;;;;;;;;;;;;;;;;;4919063;29;19974;-84
2023/03/19 06:37:37;;;;;;;;;;;;;;;;;;4919300;29;19917;-83
2023/03/19 06:40:04;;;;;;;;;;;;;;;;;;4919173;29;19915;-82
2023/03/19 06:42:29;;;;;;;;;;;;;;;;;;4919393;29;19918;-83
2023/03/19 06:44:55;;;;;;;;;;;;;;;;;;4919199;29;19947;-83
2023/03/19 06:47:20;;;;;;;;;;;;;;;;;;4919053;29;19922;-85
2023/03/19 06:49:45;;;;;;;;;;;;;;;;;;4919465;29;19915;-81
2023/03/19 06:52:11;;;;;;;;;;;;;;;;;;4919548;29;19920;-83
2023/03/19 06:54:36;;;;;;;;;;;;;;;;;;4919184;29;20001;-84
2023/03/19 06:57:01;;;;;;;;;;;;;;;;;;4919477;29;19911;-84
2023/03/19 06:59:27;;;;;;;;;;;;;;;;;;4919250;29;19915;-83
2023/03/19 07:01:52;;;;;;;;;;;;;;;;;;4919310;29;19911;-83
2023/03/19 07:04:17;;;;;;;;;;;;;;;;;;4918935;29;19922;-83
2023/03/19 07:06:43;;;;;;;;;;;;;;;;;;4918708;29;20429;-82
2023/03/19 07:09:08;;;;;;;;;;;;;;;;;;4919020;29;19915;-83
2023/03/19 07:11:33;;;;;;;;;;;;;;;;;;4919009;29;19922;-84
2023/03/19 07:13:59;;;;;;;;;;;;;;;;;;4918751;29;19915;-83
2023/03/19 07:16:24;;;;;;;;;;;;;;;;;;4918868;29;20383;-85
2023/03/19 07:18:50;;;;;;;;;;;;;;;;;;4918521;29;20010;-83
2023/03/19 07:21:15;;;;;;;;;;;;;;;;;;4918431;29;20267;-83
2023/03/19 07:23:40;;;;;;;;;;;;;;;;;;4918418;29;19942;-84
2023/03/19 07:26:06;;;;;;;;;;;;;;;;;;4918694;29;20357;-82
2023/03/19 07:28:31;;;;;;;;;;;;;;;;;;4918364;29;19947;-83
2023/03/19 07:30:56;;;;;;;;;;;;;;;;;;4918472;29;20408;-83
2023/03/19 07:33:22;;;;;;;;;;;;;;;;;;4901629;29;19919;-84
2023/03/19 07:35:47;;;;;;;;;;;;;;;;;;4918207;29;19922;-84
2023/03/19 07:38:13;;;;;;;;;;;;;;;;;;4918207;29;19922;-82
2023/03/19 07:40:39;;;;;;;;;;;;;;;;;;4918356;29;19922;-83
2023/03/19 07:43:04;;;;;;;;;;;;;;;;;;4918308;29;19915;-83
2023/03/19 07:45:30;;;;;;;;;;;;;;;;;;4918379;29;19915;-85
2023/03/19 07:47:55;;;;;;;;;;;;;;;;;;4901174;29;19919;-86
2023/03/19 07:50:20;;;;;;;;;;;;;;;;;;4918114;29;20467;-83
2023/03/19 07:52:46;;;;;;;;;;;;;;;;;;4918634;29;20350;-87
2023/03/19 07:55:12;;;;;;;;;;;;;;;;;;4918162;29;19915;-82
2023/03/19 07:57:38;;;;;;;;;;;;;;;;;;4919581;29;19915;-86
2023/03/19 08:00:03;;;;;;;;;;;;;;;;;;4918544;29;19979;-84
2023/03/19 08:02:29;;;;;;;;;;;;;;;;;;4918090;29;19963;-88
2023/03/19 08:04:54;;;;;;;;;;;;;;;;;;4918272;29;20362;-82
2023/03/19 08:07:20;;;;;;;;;;;;;;;;;;4917953;29;19919;-89
2023/03/19 08:09:45;;;;;;;;;;;;;;;;;;4902171;29;19919;-91
2023/03/19 14:02:21;;;;;;;;;;;;;;;;;;4910057;29;20002;-85
2023/03/19 14:04:53;;;;;;;;;;;;;;;;;;4900076;29;20361;-88
2023/03/19 14:07:45;;;;;;;;;;;;;;;;;;4901422;29;19915;-82
2023/03/19 14:10:24;;;;;;;;;;;;;;;;;;4881254;29;20299;-83
2023/03/19 14:12:49;;;;;;;;;;;;;;;;;;4882910;29;19932;-82
2023/03/19 14:15:18;;;;;;;;;;;;;;;;;;4882379;29;19912;-83
2023/03/19 14:17:43;;;;;;;;;;;;;;;;;;4882563;29;19915;-82
2023/03/19 14:20:09;;;;;;;;;;;;;;;;;;4882456;29;19919;-86
2023/03/19 14:22:38;;;;;;;;;;;;;;;;;;4882298;29;19916;-91
2023/03/19 14:25:24;;;;;;;;;;;;;;;;;;4882578;29;19923;-87
2023/03/19 14:27:59;;;;;;;;;;;;;;;;;;4880033;29;19916;-85
2023/03/19 14:30:25;;;;;;;;;;;;;;;;;;4874465;29;19954;-90
2023/03/19 14:32:51;;;;;;;;;;;;;;;;;;4882583;29;19951;-84
2023/03/19 14:35:21;;;;;;;;;;;;;;;;;;4883413;29;20381;-86
2023/03/19 14:37:48;;;;;;;;;;;;;;;;;;4878228;29;19916;-85
2023/03/19 14:40:13;;;;;;;;;;;;;;;;;;4865086;29;20382;-85
2023/03/19 14:42:42;;;;;;;;;;;;;;;;;;4881668;29;19920;-88
2023/03/19 14:45:14;;;;;;;;;;;;;;;;;;4876202;29;19916;-84
2023/03/19 14:47:58;;;;;;;;;;;;;;;;;;4862705;29;20364;-85
2023/03/19 14:50:23;;;;;;;;;;;;;;;;;;4862893;29;19916;-86
2023/03/19 14:52:57;;;;;;;;;;;;;;;;;;4862839;29;19923;-86
2023/03/19 14:55:31;;;;;;;;;;;;;;;;;;4866878;29;20015;-90
2023/03/19 14:57:59;;;;;;;;;;;;;;;;;;4863221;29;20209;-90
2023/03/19 15:00:24;;;;;;;;;;;;;;;;;;4863975;29;20299;-86
2023/03/19 15:02:50;;;;;;;;;;;;;;;;;;4874942;29;19931;-89
2023/03/19 15:05:27;;;;;;;;;;;;;;;;;;4880743;29;19916;-84
2023/03/19 15:07:57;;;;;;;;;;;;;;;;;;4864944;29;20585;-84
2023/03/19 15:10:25;;;;;;;;;;;;;;;;;;4883920;29;19922;-85
2023/03/19 15:13:06;;;;;;;;;;;;;;;;;;4899715;29;19920;-87
2023/03/19 15:15:37;;;;;;;;;;;;;;;;;;4896004;29;19923;-83
2023/03/19 15:18:09;;;;;;;;;;;;;;;;;;4899250;29;19915;-82
2023/03/19 15:20:37;;;;;;;;;;;;;;;;;;4899496;29;20010;-83
2023/03/19 15:23:04;;;;;;;;;;;;;;;;;;4897798;29;20452;-85
2023/03/19 15:25:29;;;;;;;;;;;;;;;;;;4880609;29;19916;-84
2023/03/19 15:28:14;;;;;;;;;;;;;;;;;;4889757;29;20030;-84
2023/03/19 15:30:40;;;;;;;;;;;;;;;;;;4899185;29;20044;-88
2023/03/19 15:33:28;;;;;;;;;;;;;;;;;;4899129;29;19990;-86
2023/03/19 15:35:56;;;;;;;;;;;;;;;;;;4899468;29;19955;-84
2023/03/19 15:38:23;;;;;;;;;;;;;;;;;;4898988;29;19922;-84
2023/03/19 15:40:48;;;;;;;;;;;;;;;;;;4899137;29;20043;-83
2023/03/19 15:43:14;;;;;;;;;;;;;;;;;;4898926;29;20369;-84
2023/03/19 15:45:41;;;;;;;;;;;;;;;;;;4899066;29;19971;-83
2023/03/19 15:48:27;;;;;;;;;;;;;;;;;;4899171;29;19920;-86
2023/03/19 15:50:56;;;;;;;;;;;;;;;;;;4899035;29;20073;-87
2023/03/19 15:53:23;;;;;;;;;;;;;;;;;;4899019;29;19986;-83
2023/03/19 15:55:50;;;;;;;;;;;;;;;;;;4898856;29;19915;-83
2023/03/19 15:58:18;;;;;;;;;;;;;;;;;;4898850;29;20392;-86
2023/03/19 16:00:44;;;;;;;;;;;;;;;;;;4898864;29;19943;-83
2023/03/19 16:03:21;;;;;;;;;;;;;;;;;;4898913;29;19923;-86
2023/03/19 16:05:50;;;;;;;;;;;;;;;;;;4898877;29;19916;-83
2023/03/19 16:08:23;;;;;;;;;;;;;;;;;;4898614;29;19998;-80
2023/03/19 16:10:49;;;;;;;;;;;;;;;;;;4881980;29;19911;-84
2023/03/19 16:13:31;;;;;;;;;;;;;;;;;;4898955;29;19946;-83
2023/03/19 16:16:01;;;;;;;;;;;;;;;;;;4898624;29;19943;-84
2023/03/19 16:18:28;;;;;;;;;;;;;;;;;;4898438;29;19926;-83
2023/03/19 16:21:01;;;;;;;;;;;;;;;;;;4898724;29;19915;-84
2023/03/19 16:23:39;;;;;;;;;;;;;;;;;;4898528;29;20437;-83
2023/03/19 16:26:15;;;;;;;;;;;;;;;;;;4898668;29;19920;-83
2023/03/19 16:28:46;;;;;;;;;;;;;;;;;;4898641;29;19923;-85
2023/03/19 16:31:22;;;;;;;;;;;;;;;;;;4898320;29;19955;-84
2023/03/19 16:33:49;;;;;;;;;;;;;;;;;;4895722;29;20290;-83
2023/03/19 16:36:14;;;;;;;;;;;;;;;;;;4898855;29;19966;-83
2023/03/19 16:39:00;;;;;;;;;;;;;;;;;;4898825;29;19923;-84
2023/03/19 16:41:32;;;;;;;;;;;;;;;;;;4888346;29;19911;-83
2023/03/19 18:15:58;;;;;;;;;;;;;;;;;;5091407;23;19927;-88
2023/03/19 18:18:24;;;;;;;;;;;;;;;;;;4881293;29;19919;-90
2023/03/19 18:20:49;;;;;;;;;;;;;;;;;;4881243;29;19923;-88
2023/03/19 18:23:15;;;;;;;;;;;;;;;;;;4882186;29;19916;-89
2023/03/19 18:25:41;;;;;;;;;;;;;;;;;;4882204;29;20044;-90
2023/03/19 18:28:07;;;;;;;;;;;;;;;;;;4882057;29;19963;-88
2023/03/19 18:30:33;;;;;;;;;;;;;;;;;;4881986;29;19915;-86
2023/03/19 18:33:00;;;;;;;;;;;;;;;;;;4881902;29;20003;-87
2023/03/19 18:35:44;;;;;;;;;;;;;;;;;;4881518;29;20393;-88
2023/03/19 18:38:17;;;;;;;;;;;;;;;;;;4881920;29;20002;-87
2023/03/19 18:40:42;;;;;;;;;;;;;;;;;;4881659;29;19922;-87
2023/03/19 18:43:11;;;;;;;;;;;;;;;;;;4895909;29;19919;-89
2023/03/19 18:45:37;;;;;;;;;;;;;;;;;;4882202;29;19964;-85
2023/03/19 18:48:05;;;;;;;;;;;;;;;;;;4881708;29;19915;-85
2023/03/19 18:50:31;;;;;;;;;;;;;;;;;;4881617;29;19915;-85
2023/03/19 18:52:57;;;;;;;;;;;;;;;;;;4881387;29;19915;-84
2023/03/19 18:55:25;;;;;;;;;;;;;;;;;;4881412;29;19973;-84
2023/03/19 18:57:53;;;;;;;;;;;;;;;;;;4881459;29;19919;-87
2023/03/19 19:00:20;;;;;;;;;;;;;;;;;;4881286;29;19920;-84
2023/03/19 19:02:47;;;;;;;;;;;;;;;;;;4881505;29;19912;-85
2023/03/19 19:05:16;;;;;;;;;;;;;;;;;;4880050;29;19915;-87
2023/03/19 19:07:42;;;;;;;;;;;;;;;;;;4881034;29;19964;-85
2023/03/19 19:10:08;;;;;;;;;;;;;;;;;;4879908;29;19911;-88
2023/03/19 19:12:33;;;;;;;;;;;;;;;;;;4881703;29;19916;-87
2023/03/19 19:15:00;;;;;;;;;;;;;;;;;;4881538;29;20382;-85
2023/03/19 19:17:28;;;;;;;;;;;;;;;;;;4895728;29;19975;-91
2023/03/19 19:19:53;;;;;;;;;;;;;;;;;;4883105;29;20388;-88
2023/03/19 19:22:19;;;;;;;;;;;;;;;;;;4898929;29;19951;-88
2023/03/19 19:24:45;;;;;;;;;;;;;;;;;;4899874;29;19915;-85
2023/03/19 19:27:14;;;;;;;;;;;;;;;;;;4899593;29;19919;-85
2023/03/19 19:29:39;;;;;;;;;;;;;;;;;;4900093;29;19982;-86
2023/03/19 19:32:15;;;;;;;;;;;;;;;;;;4900333;29;19979;-88
2023/03/19 19:34:41;;;;;;;;;;;;;;;;;;4882761;29;20434;-88
2023/03/19 19:37:10;;;;;;;;;;;;;;;;;;4898342;29;19950;-88
2023/03/19 19:39:36;;;;;;;;;;;;;;;;;;4898416;29;19946;-93
2023/03/19 19:42:01;;;;;;;;;;;;;;;;;;4882756;29;19998;-85
2023/03/19 19:44:26;;;;;;;;;;;;;;;;;;4899168;29;19922;-84
2023/03/19 19:46:53;;;;;;;;;;;;;;;;;;4899223;29;19966;-80
2023/03/19 19:49:19;;;;;;;;;;;;;;;;;;4882734;29;19971;-81
2023/03/19 19:51:44;;;;;;;;;;;;;;;;;;4899108;29;19915;-81
2023/03/19 19:54:10;;;;;;;;;;;;;;;;;;4899425;29;19923;-81
2023/03/19 19:56:36;;;;;;;;;;;;;;;;;;4899151;29;19915;-82
2023/03/19 19:59:04;;;;;;;;;;;;;;;;;;4899106;29;19919;-82
2023/03/19 20:01:29;;;;;;;;;;;;;;;;;;4898964;29;19923;-82
2023/03/19 20:03:55;;;;;;;;;;;;;;;;;;4881833;29;19911;-82
2023/03/19 20:06:20;;;;;;;;;;;;;;;;;;4898783;29;19970;-81
2023/03/19 20:08:48;;;;;;;;;;;;;;;;;;4898809;29;19916;-82
2023/03/19 20:11:18;;;;;;;;;;;;;;;;;;4882227;29;19919;-82
2023/03/19 20:13:48;;;;;;;;;;;;;;;;;;4899044;29;19916;-82
2023/03/19 20:16:14;;;;;;;;;;;;;;;;;;4878800;29;19968;-81
2023/03/19 20:18:42;;;;;;;;;;;;;;;;;;4879006;29;19916;-81
2023/03/19 20:21:08;;;;;;;;;;;;;;;;;;4880219;29;19936;-81
2023/03/19 20:23:33;;;;;;;;;;;;;;;;;;4880236;29;19916;-82
2023/03/19 20:26:00;;;;;;;;;;;;;;;;;;4879945;29;19931;-83
2023/03/19 20:28:31;;;;;;;;;;;;;;;;;;4880485;29;19915;-82
2023/03/19 20:30:57;;;;;;;;;;;;;;;;;;4880036;29;19916;-82
2023/03/19 20:33:22;;;;;;;;;;;;;;;;;;4880206;29;19959;-83
2023/03/19 20:35:47;;;;;;;;;;;;;;;;;;4880422;29;19970;-83
2023/03/19 20:38:13;;;;;;;;;;;;;;;;;;4880081;29;20228;-83
2023/03/19 20:40:44;;;;;;;;;;;;;;;;;;4879926;29;19923;-83
2023/03/19 20:43:24;;;;;;;;;;;;;;;;;;4880044;29;19923;-82
2023/03/19 20:45:50;;;;;;;;;;;;;;;;;;4880033;29;19920;-82
2023/03/19 20:48:15;;;;;;;;;;;;;;;;;;4880183;29;19916;-82
2023/03/19 20:50:41;;;;;;;;;;;;;;;;;;4880043;29;20286;-83
2023/03/19 20:53:06;;;;;;;;;;;;;;;;;;4878765;29;19972;-83
2023/03/19 20:55:33;;;;;;;;;;;;;;;;;;4879986;29;20276;-83
2023/03/19 20:57:59;;;;;;;;;;;;;;;;;;4879675;29;19922;-83
2023/03/19 21:00:28;;;;;;;;;;;;;;;;;;4880097;29;19923;-82
2023/03/19 21:02:54;;;;;;;;;;;;;;;;;;4881889;29;19919;-83
2023/03/19 21:05:21;;;;;;;;;;;;;;;;;;4883509;29;19971;-82
2023/03/19 21:07:52;;;;;;;;;;;;;;;;;;4883512;29;19916;-82
2023/03/19 21:10:31;;;;;;;;;;;;;;;;;;4881707;29;19964;-82
2023/03/19 21:12:57;;;;;;;;;;;;;;;;;;4883499;29;20018;-80
2023/03/19 21:15:22;;;;;;;;;;;;;;;;;;4883796;29;19955;-80
2023/03/19 21:17:48;;;;;;;;;;;;;;;;;;4900472;29;19927;-81
2023/03/19 21:20:17;;;;;;;;;;;;;;;;;;4902124;29;19943;-81
2023/03/19 21:22:44;;;;;;;;;;;;;;;;;;4901903;29;19951;-81
2023/03/19 21:25:15;;;;;;;;;;;;;;;;;;4901698;29;19919;-81
2023/03/19 21:27:43;;;;;;;;;;;;;;;;;;4902109;29;20019;-83
2023/03/19 21:30:12;;;;;;;;;;;;;;;;;;4901823;29;19930;-83
2023/03/19 21:32:39;;;;;;;;;;;;;;;;;;4903755;29;19924;-81
2023/03/19 21:35:05;;;;;;;;;;;;;;;;;;4901562;29;19923;-83
2023/03/19 21:37:31;;;;;;;;;;;;;;;;;;4901728;29;19922;-82
2023/03/19 21:39:56;;;;;;;;;;;;;;;;;;4901426;29;19915;-83
2023/03/19 21:42:22;;;;;;;;;;;;;;;;;;4884649;29;19915;-83
2023/03/19 21:44:56;;;;;;;;;;;;;;;;;;4901298;29;19915;-83
2023/03/19 21:47:22;;;;;;;;;;;;;;;;;;4901489;29;19970;-81
2023/03/19 21:49:47;;;;;;;;;;;;;;;;;;4901608;29;20010;-80
2023/03/19 21:52:15;;;;;;;;;;;;;;;;;;4901425;29;20318;-82
2023/03/19 21:54:40;;;;;;;;;;;;;;;;;;4901463;29;20421;-81
2023/03/19 21:57:08;;;;;;;;;;;;;;;;;;4901538;29;19915;-81
2023/03/19 21:59:33;;;;;;;;;;;;;;;;;;4901423;29;19922;-83
2023/03/19 22:01:59;;;;;;;;;;;;;;;;;;4901275;29;19915;-82
2023/03/19 22:04:24;;;;;;;;;;;;;;;;;;4901359;29;19915;-81
2023/03/19 22:06:49;;;;;;;;;;;;;;;;;;4900977;29;20350;-80
2023/03/19 22:09:15;;;;;;;;;;;;;;;;;;4901057;29;19919;-82
2023/03/19 22:11:41;;;;;;;;;;;;;;;;;;4900928;29;19919;-80
2023/03/19 22:14:06;;;;;;;;;;;;;;;;;;4900609;29;19924;-79
2023/03/19 22:16:32;;;;;;;;;;;;;;;;;;4900903;29;20006;-83
2023/03/19 22:18:57;;;;;;;;;;;;;;;;;;4900969;29;20330;-82
2023/03/19 22:21:23;;;;;;;;;;;;;;;;;;4900837;29;19919;-82
2023/03/19 22:23:49;;;;;;;;;;;;;;;;;;4883972;29;19919;-79
2023/03/19 22:26:17;;;;;;;;;;;;;;;;;;4900752;29;19963;-80
2023/03/19 22:28:42;;;;;;;;;;;;;;;;;;4900676;29;19938;-81
2023/03/19 22:31:07;;;;;;;;;;;;;;;;;;4900885;29;20370;-81
2023/03/19 22:33:33;;;;;;;;;;;;;;;;;;4900511;29;19915;-81
2023/03/19 22:35:58;;;;;;;;;;;;;;;;;;4900572;29;19962;-80
2023/03/19 22:38:23;;;;;;;;;;;;;;;;;;4900407;29;20014;-82
2023/03/19 22:40:53;;;;;;;;;;;;;;;;;;4883632;29;20282;-80
2023/03/19 22:43:33;;;;;;;;;;;;;;;;;;4900350;29;19998;-81
2023/03/19 22:46:01;;;;;;;;;;;;;;;;;;4900707;29;19971;-81
2023/03/19 22:48:26;;;;;;;;;;;;;;;;;;4900629;29;19915;-81
2023/03/19 22:50:52;;;;;;;;;;;;;;;;;;4900264;29;19915;-83
2023/03/19 22:53:20;;;;;;;;;;;;;;;;;;4900251;29;19987;-80
2023/03/19 22:55:45;;;;;;;;;;;;;;;;;;4883366;29;19963;-81
2023/03/19 22:58:10;;;;;;;;;;;;;;;;;;4900357;29;19916;-82
2023/03/19 23:00:36;;;;;;;;;;;;;;;;;;4900239;29;19964;-81
